Time;durP1;ratioP1;P1;durP2;ratioP2;P2;SDS_P1;SDS_P2;PMS_P1;PMS_P2;Temp;Humidity;BMP_temperature;BMP_pressure;BME280_temperature;BME280_humidity;BME280_pressure;Samples;Min_cycle;Max_cycle;Signal;HPM_P1;HPM_P2
2023/11/18 00:01:33;;;;;;;65.57;27.80;;;;;;;3.37;100.00;102147.13;5000553;28;20050;-80
2023/11/18 00:03:59;;;;;;;60.20;23.25;;;;;;;3.31;100.00;102146.56;4983805;28;20083;-80
2023/11/18 00:06:24;;;;;;;62.63;23.85;;;;;;;3.28;100.00;102151.81;4998723;28;20132;-80
2023/11/18 00:08:50;;;;;;;66.57;24.38;;;;;;;3.34;100.00;102150.69;4998329;28;20038;-80
2023/11/18 00:11:15;;;;;;;67.75;27.80;;;;;;;3.28;100.00;102146.69;4997818;28;20053;-80
2023/11/18 00:13:44;;;;;;;50.70;22.55;;;;;;;3.27;100.00;102149.34;4996557;28;20050;-80
2023/11/18 00:16:13;;;;;;;55.95;22.92;;;;;;;3.30;100.00;102139.75;4993101;28;20030;-80
2023/11/18 00:18:42;;;;;;;54.80;22.33;;;;;;;3.28;100.00;102139.00;4999332;28;20044;-80
2023/11/18 00:21:09;;;;;;;58.30;22.58;;;;;;;3.34;100.00;102139.63;5012268;28;20038;-81
2023/11/18 00:23:34;;;;;;;56.03;23.00;;;;;;;3.32;100.00;102137.13;5001327;28;20034;-80
2023/11/18 00:26:00;;;;;;;53.75;22.58;;;;;;;3.34;100.00;102139.63;5012139;28;20050;-80
2023/11/18 00:28:26;;;;;;;54.35;22.75;;;;;;;3.37;100.00;102137.72;4997914;28;20038;-80
2023/11/18 00:30:55;;;;;;;47.00;20.77;;;;;;;3.37;100.00;102130.03;4995412;28;20046;-79
2023/11/18 00:33:20;;;;;;;48.33;19.90;;;;;;;3.28;100.00;102128.75;4986820;28;20111;-80
2023/11/18 00:35:47;;;;;;;48.08;20.75;;;;;;;3.25;100.00;102122.94;4998555;28;20034;-81
2023/11/18 00:38:12;;;;;;;50.15;22.27;;;;;;;3.30;100.00;102123.56;4983053;28;20032;-81
2023/11/18 00:40:37;;;;;;;44.08;20.27;;;;;;;3.34;100.00;102121.66;4986852;28;20576;-81
2023/11/18 00:43:03;;;;;;;48.95;20.38;;;;;;;3.34;100.00;102119.09;4995350;28;20591;-80
2023/11/18 00:45:29;;;;;;;52.92;20.33;;;;;;;3.28;100.00;102115.94;5004325;28;20042;-80
2023/11/18 00:47:54;;;;;;;43.90;20.10;;;;;;;3.36;100.00;102112.16;4986677;28;20034;-81
2023/11/18 00:50:20;;;;;;;43.30;20.83;;;;;;;3.26;100.00;102114.34;4995844;28;20042;-81
2023/11/18 00:52:49;;;;;;;52.20;21.63;;;;;;;3.28;100.00;102115.94;5003859;28;20112;-81
2023/11/18 00:55:17;;;;;;;44.97;21.40;;;;;;;3.19;100.00;102106.13;4999942;28;20748;-80
2023/11/18 00:57:46;;;;;;;53.33;22.20;;;;;;;3.23;100.00;102107.63;4989980;28;20060;-80
2023/11/18 01:00:16;;;;;;;55.72;22.67;;;;;;;3.19;100.00;102116.38;4990868;28;20045;-81
2023/11/18 01:02:46;;;;;;;46.20;21.95;;;;;;;3.18;100.00;102113.88;4997747;28;20504;-81
2023/11/18 01:05:13;;;;;;;50.50;20.83;;;;;;;3.12;100.00;102113.28;5008331;28;21287;-80
2023/11/18 01:07:40;;;;;;;55.28;22.52;;;;;;;3.15;100.00;102108.94;4996242;28;20038;-79
2023/11/18 01:10:07;;;;;;;45.35;20.67;;;;;;;3.12;100.00;102108.16;4984629;28;20226;-80
2023/11/18 01:12:33;;;;;;;53.45;22.35;;;;;;;3.11;100.00;102113.38;4998456;28;20041;-81
2023/11/18 01:14:59;;;;;;;54.00;21.95;;;;;;;3.07;100.00;102115.25;4985055;28;20034;-79
2023/11/18 01:17:25;;;;;;;46.45;21.38;;;;;;;3.14;100.00;102122.63;4984555;28;20112;-81
2023/11/18 01:19:51;;;;;;;45.75;21.40;;;;;;;3.10;100.00;102122.78;4979930;28;20038;-80
2023/11/18 01:22:18;;;;;;;54.15;22.38;;;;;;;3.20;100.00;102123.19;4988845;28;20037;-81
2023/11/18 01:24:44;;;;;;;48.63;21.35;;;;;;;3.19;100.00;102128.38;4984793;28;20057;-81
2023/11/18 01:27:11;;;;;;;46.60;19.83;;;;;;;3.08;100.00;102139.97;4989668;28;20037;-81
2023/11/18 01:29:39;;;;;;;52.60;20.40;;;;;;;3.18;100.00;102136.97;4987919;28;20116;-80
2023/11/18 01:32:09;;;;;;;54.38;22.85;;;;;;;3.25;100.00;102141.72;4998591;28;20053;-81
2023/11/18 01:34:39;;;;;;;51.45;21.20;;;;;;;3.19;100.00;102136.88;4987342;28;20039;-80
2023/11/18 01:37:07;;;;;;;46.08;20.65;;;;;;;3.13;100.00;102142.31;4983672;28;20048;-80
2023/11/18 01:39:33;;;;;;;51.22;20.60;;;;;;;3.20;100.00;102136.00;4999858;28;20394;-81
2023/11/18 01:41:59;;;;;;;50.40;20.88;;;;;;;3.04;100.00;102140.22;5002027;28;20182;-80
2023/11/18 01:44:28;;;;;;;41.83;20.27;;;;;;;2.99;100.00;102145.53;4993938;28;20042;-80
2023/11/18 01:46:57;;;;;;;48.85;21.40;;;;;;;3.00;100.00;102142.09;4989776;28;20078;-81
2023/11/18 01:49:23;;;;;;;53.03;21.83;;;;;;;3.05;100.00;102136.72;5002607;28;20121;-81
2023/11/18 01:51:53;;;;;;;46.88;20.40;;;;;;;3.06;100.00;102138.41;4999356;28;20026;-81
2023/11/18 01:54:21;;;;;;;46.35;20.45;;;;;;;3.07;100.00;102142.59;4987420;28;20026;-82
2023/11/18 01:56:49;;;;;;;47.85;21.02;;;;;;;3.04;100.00;102143.59;5002607;28;20030;-81
2023/11/18 01:59:18;;;;;;;51.10;20.70;;;;;;;3.06;100.00;102143.53;4998659;28;21423;-81
2023/11/18 02:01:49;;;;;;;46.20;21.13;;;;;;;3.02;100.00;102152.28;4999740;28;20029;-80
2023/11/18 02:04:16;;;;;;;46.95;20.17;;;;;;;2.94;100.00;102150.06;4991995;28;20038;-81
2023/11/18 02:06:42;;;;;;;50.92;21.35;;;;;;;2.91;100.00;102143.34;5000052;28;20151;-79
2023/11/18 02:09:08;;;;;;;54.88;23.48;;;;;;;2.98;100.00;102137.94;5000300;28;20029;-81
2023/11/18 02:11:42;;;;;;;56.22;23.35;;;;;;;2.95;100.00;102143.22;4990352;28;20563;-82
2023/11/18 02:14:13;;;;;;;48.00;20.85;;;;;;;2.84;100.00;102139.41;4998669;28;20497;-80
2023/11/18 02:16:40;;;;;;;53.95;23.02;;;;;;;2.93;100.00;102135.59;4991596;28;20034;-81
2023/11/18 02:19:21;;;;;;;54.22;21.83;;;;;;;2.99;100.00;102135.28;4988233;28;20117;-80
2023/11/18 02:21:49;;;;;;;54.70;23.23;;;;;;;3.06;100.00;102128.16;4998253;28;20061;-80
2023/11/18 02:24:30;;;;;;;52.78;22.10;;;;;;;2.91;100.00;102135.66;4986728;28;20030;-81
2023/11/18 02:26:57;;;;;;;56.00;21.83;;;;;;;2.93;100.00;102138.97;4998751;28;20038;-81
2023/11/18 02:29:25;;;;;;;49.40;20.55;;;;;;;3.02;100.00;102124.06;4997595;28;20044;-81
2023/11/18 02:31:56;;;;;;;52.20;22.35;;;;;;;2.96;100.00;102122.63;4981880;28;20033;-81
2023/11/18 02:34:28;;;;;;;56.67;23.15;;;;;;;2.92;100.00;102124.50;4990178;28;20516;-80
2023/11/18 02:37:00;;;;;;;49.63;20.90;;;;;;;2.92;100.00;102123.69;4991416;28;20030;-81
2023/11/18 02:39:38;;;;;;;52.30;21.60;;;;;;;2.91;100.00;102130.53;4999468;28;20124;-81
2023/11/18 02:42:04;;;;;;;54.58;21.25;;;;;;;2.96;100.00;102122.63;5004157;28;20362;-81
2023/11/18 02:44:32;;;;;;;55.17;22.23;;;;;;;2.92;100.00;102121.13;4989726;28;21110;-81
2023/11/18 02:46:58;;;;;;;56.58;23.05;;;;;;;2.92;100.00;102133.94;4989958;28;20393;-79
2023/11/18 02:49:23;;;;;;;55.03;22.30;;;;;;;2.92;100.00;102136.50;4989094;28;20137;-80
2023/11/18 02:51:49;;;;;;;53.47;22.27;;;;;;;2.96;100.00;102134.59;4985355;28;20378;-80
2023/11/18 02:54:16;;;;;;;59.10;22.83;;;;;;;2.99;100.00;102134.47;4999441;28;20034;-81
2023/11/18 02:56:41;;;;;;;59.00;23.15;;;;;;;2.93;100.00;102146.66;4999821;28;20018;-79
2023/11/18 02:59:07;;;;;;;59.40;22.23;;;;;;;2.93;100.00;102156.09;4985120;28;20026;-81
2023/11/18 03:01:35;;;;;;;58.95;23.02;;;;;;;3.05;100.00;102141.84;4999556;28;20041;-81
2023/11/18 03:04:02;;;;;;;59.95;23.05;;;;;;;2.98;100.00;102132.81;4990158;28;20045;-80
2023/11/18 03:06:27;;;;;;;58.40;23.00;;;;;;;2.97;100.00;102126.03;5003115;28;20046;-80
2023/11/18 03:08:53;;;;;;;59.65;23.52;;;;;;;2.95;100.00;102122.72;5005627;28;20038;-80
2023/11/18 03:11:20;;;;;;;60.08;21.40;;;;;;;3.03;100.00;102113.75;4990585;28;20113;-80
2023/11/18 03:13:48;;;;;;;71.78;25.73;;;;;;;3.00;100.00;102116.47;5000145;28;20129;-81
2023/11/18 03:16:14;;;;;;;66.32;22.80;;;;;;;2.96;100.00;102121.78;4989125;28;20049;-81
2023/11/18 03:18:41;;;;;;;69.28;22.85;;;;;;;2.94;100.00;102114.19;4988759;28;20041;-81
2023/11/18 03:21:12;;;;;;;69.45;25.58;;;;;;;3.03;100.00;102103.50;4989392;28;20034;-80
2023/11/18 03:23:38;;;;;;;78.93;25.15;;;;;;;3.08;100.00;102103.25;4989676;28;20038;-81
2023/11/18 03:26:05;;;;;;;70.95;25.42;;;;;;;2.98;100.00;102100.31;4995856;28;20035;-81
2023/11/18 03:28:31;;;;;;;74.10;25.63;;;;;;;3.05;100.00;102093.16;4992441;28;20034;-81
2023/11/18 03:30:57;;;;;;;75.13;25.10;;;;;;;3.08;100.00;102096.41;4991826;28;20043;-81
2023/11/18 03:33:22;;;;;;;85.55;27.63;;;;;;;3.12;100.00;102092.78;4999407;28;20025;-80
2023/11/18 03:35:48;;;;;;;80.45;24.75;;;;;;;3.08;100.00;102111.78;5005855;28;20037;-82
2023/11/18 03:38:13;;;;;;;82.53;25.88;;;;;;;3.07;100.00;102105.00;4988187;28;20033;-79
2023/11/18 03:40:41;;;;;;;84.20;25.30;;;;;;;3.08;100.00;102108.38;4999063;28;20053;-80
2023/11/18 03:43:07;;;;;;;82.72;25.20;;;;;;;3.18;100.00;102104.47;4990941;28;20088;-81
2023/11/18 03:45:33;;;;;;;78.00;24.23;;;;;;;3.04;100.00;102106.88;4988399;28;20046;-80
2023/11/18 03:47:59;;;;;;;86.93;26.05;;;;;;;3.11;100.00;102118.50;4996640;28;20032;-81
2023/11/18 03:50:24;;;;;;;90.20;27.25;;;;;;;3.13;100.00;102111.56;5003634;28;20050;-80
2023/11/18 03:52:50;;;;;;;97.13;27.23;;;;;;;3.17;100.00;102117.38;4994017;28;20041;-81
2023/11/18 03:55:15;;;;;;;83.72;24.90;;;;;;;3.18;100.00;102122.41;5005681;28;20088;-79
2023/11/18 03:57:41;;;;;;;89.40;27.42;;;;;;;3.22;100.00;102115.38;4994933;28;20032;-79
2023/11/18 04:00:07;;;;;;;103.95;29.45;;;;;;;3.25;100.00;102110.94;5013693;28;20077;-82
2023/11/18 04:02:39;;;;;;;91.72;27.30;;;;;;;3.19;100.00;102113.81;4996532;28;20612;-81
2023/11/18 04:05:08;;;;;;;96.88;27.92;;;;;;;3.19;100.00;102111.25;4990396;28;20528;-83
2023/11/18 04:07:33;;;;;;;89.22;28.23;;;;;;;3.17;100.00;102107.94;4994511;28;20116;-79
2023/11/18 04:10:00;;;;;;;107.07;29.20;;;;;;;3.19;100.00;102100.19;5004319;28;20133;-81
2023/11/18 04:12:26;;;;;;;110.47;28.70;;;;;;;3.23;100.00;102096.56;5006443;28;20049;-80
2023/11/18 04:14:53;;;;;;;114.18;30.70;;;;;;;3.17;100.00;102100.25;4985313;28;20054;-80
2023/11/18 04:17:18;;;;;;;114.10;29.38;;;;;;;3.17;100.00;102089.19;5017875;28;20051;-79
2023/11/18 04:19:43;;;;;;;109.75;29.00;;;;;;;3.18;100.00;102091.63;5002764;28;20050;-80
2023/11/18 04:22:09;;;;;;;108.28;29.55;;;;;;;3.25;100.00;102087.88;5000276;28;20497;-80
2023/11/18 04:24:35;;;;;;;108.72;30.10;;;;;;;3.18;100.00;102085.69;5001988;28;20034;-81
2023/11/18 04:27:02;;;;;;;109.03;32.65;;;;;;;3.19;100.00;102080.50;4990414;28;20378;-81
2023/11/18 04:29:27;;;;;;;121.18;31.25;;;;;;;3.19;100.00;102062.56;4998713;28;20035;-80
2023/11/18 04:31:53;;;;;;;122.50;30.48;;;;;;;3.15;100.00;102066.19;4987787;28;20034;-80
2023/11/18 04:34:19;;;;;;;116.07;29.55;;;;;;;3.23;100.00;102055.53;4994019;28;20409;-79
2023/11/18 04:36:44;;;;;;;112.25;29.23;;;;;;;3.20;100.00;102061.66;4994476;28;20037;-80
2023/11/18 04:39:15;;;;;;;119.13;31.58;;;;;;;3.21;100.00;102059.91;4979307;28;20517;-81
2023/11/18 04:41:41;;;;;;;117.78;33.53;;;;;;;3.23;100.00;102052.97;4998689;28;20091;-80
2023/11/18 04:44:07;;;;;;;110.78;33.30;;;;;;;3.22;100.00;102043.59;4994241;28;20120;-80
2023/11/18 04:46:32;;;;;;;109.25;30.10;;;;;;;3.22;100.00;102035.91;4999365;28;20088;-79
2023/11/18 04:48:58;;;;;;;108.25;29.65;;;;;;;3.20;100.00;102043.72;4999603;28;20042;-80
2023/11/18 04:51:25;;;;;;;117.63;36.75;;;;;;;3.25;100.00;102044.28;4998823;28;20664;-78
2023/11/18 04:53:50;;;;;;;111.32;31.08;;;;;;;3.30;100.00;102034.63;4986220;28;20030;-80
2023/11/18 04:56:18;;;;;;;114.38;31.92;;;;;;;3.27;100.00;102042.47;5003895;28;20034;-79
2023/11/18 04:58:47;;;;;;;109.35;31.95;;;;;;;3.32;100.00;102037.13;4997089;28;20033;-80
2023/11/18 05:01:14;;;;;;;108.40;30.40;;;;;;;3.25;100.00;102028.91;4995475;28;20050;-80
2023/11/18 05:03:39;;;;;;;104.53;30.35;;;;;;;3.42;100.00;102027.22;5004772;28;20038;-77
2023/11/18 05:06:05;;;;;;;106.35;32.55;;;;;;;3.28;100.00;102012.56;5003511;28;20520;-79
2023/11/18 05:08:31;;;;;;;107.18;32.22;;;;;;;3.36;100.00;102007.03;5002206;28;20412;-79
2023/11/18 05:10:57;;;;;;;106.75;30.75;;;;;;;3.28;100.00;102012.56;4986776;28;20042;-79
2023/11/18 05:13:23;;;;;;;98.30;29.42;;;;;;;3.34;100.00;102009.66;4984080;28;20113;-82
2023/11/18 05:15:49;;;;;;;96.10;30.77;;;;;;;3.39;100.00;101999.16;4990890;28;20041;-79
2023/11/18 05:18:15;;;;;;;101.75;32.08;;;;;;;3.30;100.00;101998.75;4990998;28;20076;-82
2023/11/18 05:20:44;;;;;;;103.45;29.85;;;;;;;3.34;100.00;101993.47;4982027;28;20030;-80
2023/11/18 05:23:11;;;;;;;96.10;30.48;;;;;;;3.29;100.00;101991.13;4996715;28;20052;-80
2023/11/18 05:25:39;;;;;;;106.50;30.75;;;;;;;3.43;100.00;101988.69;4993785;28;20034;-79
2023/11/18 05:28:05;;;;;;;90.55;29.35;;;;;;;3.42;100.00;101993.88;4987203;28;20026;-80
2023/11/18 05:30:33;;;;;;;91.50;28.27;;;;;;;3.31;100.00;101997.84;5003067;28;20042;-80
2023/11/18 05:32:58;;;;;;;89.78;28.42;;;;;;;3.40;100.00;101995.69;4999916;28;20084;-80
2023/11/18 05:35:28;;;;;;;100.90;29.38;;;;;;;3.34;100.00;101993.47;4982396;28;20035;-80
2023/11/18 05:37:54;;;;;;;103.60;29.17;;;;;;;3.32;100.00;101996.09;5007504;28;20044;-79
2023/11/18 05:40:20;;;;;;;98.88;30.25;;;;;;;3.36;100.00;101989.91;4981074;28;20042;-80
2023/11/18 05:42:48;;;;;;;100.10;30.23;;;;;;;3.32;100.00;101990.97;4989990;28;20042;-80
2023/11/18 05:45:27;;;;;;;99.72;30.23;;;;;;;3.36;100.00;101974.50;4980377;28;20035;-81
2023/11/18 05:47:56;;;;;;;92.82;28.55;;;;;;;3.31;100.00;101976.47;4979061;28;20480;-79
2023/11/18 05:50:24;;;;;;;101.03;30.65;;;;;;;3.39;100.00;101978.63;4998007;28;20474;-80
2023/11/18 05:52:50;;;;;;;88.82;29.42;;;;;;;3.45;100.00;101976.59;5000809;28;20040;-80
2023/11/18 05:55:16;;;;;;;83.13;28.20;;;;;;;3.40;100.00;101973.44;5009367;28;20053;-79
2023/11/18 05:57:45;;;;;;;87.35;29.08;;;;;;;3.39;100.00;101965.81;4983433;28;20030;-79
2023/11/18 06:00:15;;;;;;;89.55;28.00;;;;;;;3.37;100.00;101971.06;4993358;28;20038;-81
2023/11/18 06:02:44;;;;;;;73.35;25.35;;;;;;;3.37;100.00;101972.78;4998539;28;20034;-80
2023/11/18 06:05:12;;;;;;;93.43;28.83;;;;;;;3.42;100.00;101969.06;4979849;28;20038;-79
2023/11/18 06:07:39;;;;;;;83.03;27.85;;;;;;;3.48;100.00;101966.19;4996821;28;20545;-79
2023/11/18 06:10:06;;;;;;;82.43;26.90;;;;;;;3.46;100.00;101949.22;4999101;28;20038;-80
2023/11/18 06:12:32;;;;;;;73.50;27.40;;;;;;;3.41;100.00;101940.91;4995658;28;20413;-80
2023/11/18 06:14:58;;;;;;;83.72;27.17;;;;;;;3.47;100.00;101931.19;5000618;28;20095;-80
2023/11/18 06:17:24;;;;;;;77.25;27.10;;;;;;;3.41;100.00;101938.34;4985583;28;20029;-79
2023/11/18 06:19:50;;;;;;;78.40;26.27;;;;;;;3.48;100.00;101937.13;4996109;28;20137;-80
2023/11/18 06:22:15;;;;;;;76.32;25.33;;;;;;;3.47;100.00;101943.19;5002960;28;20037;-79
2023/11/18 06:24:41;;;;;;;76.20;27.85;;;;;;;3.44;100.00;101951.03;4982980;28;20041;-80
2023/11/18 06:27:10;;;;;;;73.28;25.65;;;;;;;3.46;100.00;101955.16;4988283;28;20029;-80
2023/11/18 06:29:35;;;;;;;70.00;25.65;;;;;;;3.43;100.00;101957.09;4983775;28;20038;-80
2023/11/18 06:32:01;;;;;;;73.97;26.75;;;;;;;3.46;100.00;101946.66;4991309;28;20952;-80
2023/11/18 06:34:26;;;;;;;68.85;24.80;;;;;;;3.46;100.00;101944.06;4982789;28;20044;-79
2023/11/18 06:36:53;;;;;;;76.72;26.45;;;;;;;3.38;100.00;101931.66;4988602;28;20150;-81
2023/11/18 06:39:19;;;;;;;78.97;26.92;;;;;;;3.52;100.00;101920.66;4983086;28;20029;-80
2023/11/18 06:41:50;;;;;;;68.50;24.85;;;;;;;3.40;100.00;101929.84;4985426;28;20026;-79
2023/11/18 06:44:18;;;;;;;70.57;25.33;;;;;;;3.55;100.00;101943.59;4998990;28;20112;-80
2023/11/18 06:46:44;;;;;;;83.85;26.05;;;;;;;3.47;100.00;101943.19;4984309;28;20422;-79
2023/11/18 06:49:15;;;;;;;72.57;25.33;;;;;;;3.56;100.00;101944.41;4982203;28;20022;-79
2023/11/18 06:51:41;;;;;;;83.82;29.60;;;;;;;3.45;100.00;101950.13;4983985;28;20042;-80
2023/11/18 06:54:10;;;;;;;75.93;25.95;;;;;;;3.41;100.00;101961.44;4988235;28;20097;-80
2023/11/18 06:56:42;;;;;;;69.03;25.30;;;;;;;3.50;100.00;101950.69;4994550;28;20556;-85
2023/11/18 06:59:10;;;;;;;70.63;24.75;;;;;;;3.50;100.00;101946.41;4997482;28;20117;-79
2023/11/18 07:01:35;;;;;;;72.95;24.23;;;;;;;3.51;100.00;101957.50;4988453;28;20321;-80
2023/11/18 07:04:01;;;;;;;64.82;24.63;;;;;;;3.49;100.00;101965.25;5008241;28;20484;-80
2023/11/18 07:06:26;;;;;;;64.03;23.42;;;;;;;3.49;100.00;101967.81;4998498;28;20038;-80
2023/11/18 07:08:53;;;;;;;72.72;26.20;;;;;;;3.58;100.00;101974.22;4998796;28;20025;-79
2023/11/18 07:11:20;;;;;;;61.58;25.45;;;;;;;3.54;100.00;101962.44;5008040;28;20099;-79
2023/11/18 07:13:47;;;;;;;66.25;22.60;;;;;;;3.59;100.00;101965.59;5003448;28;20063;-79
2023/11/18 07:16:14;;;;;;;67.47;24.67;;;;;;;3.60;100.00;101963.84;5017918;28;20067;-80
2023/11/18 07:18:40;;;;;;;70.85;23.88;;;;;;;3.72;100.00;101947.00;5000352;28;20489;-80
2023/11/18 07:21:06;;;;;;;64.28;23.88;;;;;;;3.62;100.00;101944.09;5013969;28;20108;-80
2023/11/18 07:23:32;;;;;;;68.20;23.95;;;;;;;3.74;100.00;101937.47;4992629;28;20373;-80
2023/11/18 07:25:58;;;;;;;61.47;23.30;;;;;;;3.70;100.00;101931.69;5014025;28;20045;-80
2023/11/18 07:28:24;;;;;;;73.10;24.63;;;;;;;3.68;100.00;101941.19;5004156;28;20045;-80
2023/11/18 07:30:49;;;;;;;67.53;24.17;;;;;;;3.66;100.00;101935.31;5033915;28;20029;-81
2023/11/18 07:33:18;;;;;;;71.15;24.85;;;;;;;3.64;100.00;101932.84;5008480;28;20033;-81
2023/11/18 07:35:46;;;;;;;62.08;21.77;;;;;;;3.64;100.00;101920.00;4996196;28;20034;-80
2023/11/18 07:38:12;;;;;;;64.10;24.45;;;;;;;3.74;100.00;101915.19;4999186;28;20045;-80
2023/11/18 07:40:42;;;;;;;68.30;26.27;;;;;;;3.69;100.00;101928.28;5001230;28;20025;-82
2023/11/18 07:43:08;;;;;;;63.67;25.35;;;;;;;3.69;100.00;101925.72;5000807;28;20131;-80
2023/11/18 07:45:37;;;;;;;63.83;23.23;;;;;;;3.78;100.00;101933.81;5018743;28;20483;-82
2023/11/18 07:48:07;;;;;;;65.45;23.60;;;;;;;3.74;100.00;101930.59;5019952;28;20056;-80
2023/11/18 07:50:36;;;;;;;68.90;25.90;;;;;;;3.83;100.00;101914.69;5029734;28;20084;-81
2023/11/18 07:53:02;;;;;;;56.67;22.90;;;;;;;3.84;100.00;101923.22;4998068;28;20049;-81
2023/11/18 07:55:29;;;;;;;68.50;25.67;;;;;;;3.89;100.00;101931.50;4994258;28;20100;-80
2023/11/18 07:57:55;;;;;;;62.08;25.83;;;;;;;3.89;100.00;101924.63;5008774;28;20037;-78
2023/11/18 08:00:21;;;;;;;61.88;23.23;;;;;;;3.87;100.00;101917.91;5000004;28;20052;-81
2023/11/18 08:02:46;;;;;;;57.35;22.58;;;;;;;3.93;100.00;101916.75;5015880;28;20105;-79
2023/11/18 08:05:15;;;;;;;56.42;20.70;;;;;;;3.93;100.00;101932.97;5030854;28;20058;-80
2023/11/18 08:07:46;;;;;;;55.95;22.08;;;;;;;3.91;100.00;101929.66;5020645;28;20049;-84
2023/11/18 08:10:13;;;;;;;51.53;20.23;;;;;;;4.01;100.00;101935.09;5001877;28;20055;-81
2023/11/18 08:12:40;;;;;;;65.35;25.90;;;;;;;4.02;100.00;101927.31;5015775;28;20067;-81
2023/11/18 08:15:09;;;;;;;57.72;21.67;;;;;;;4.10;100.00;101926.91;4994792;28;20072;-79
2023/11/18 08:17:35;;;;;;;53.70;22.55;;;;;;;4.06;100.00;101928.81;4988849;28;20073;-79
2023/11/18 08:20:00;;;;;;;50.60;21.55;;;;;;;4.18;100.00;101934.16;5016434;28;20069;-79
2023/11/18 08:22:26;;;;;;;60.88;23.98;;;;;;;4.09;100.00;101931.22;4999521;28;20432;-80
2023/11/18 08:24:53;;;;;;;49.25;19.40;;;;;;;4.24;100.00;101923.56;5007035;28;20033;-80
2023/11/18 08:27:19;;;;;;;48.30;19.10;;;;;;;4.25;100.00;101920.88;4989094;28;20484;-81
2023/11/18 08:29:46;;;;;;;48.63;19.95;;;;;;;4.22;100.00;101927.94;5011514;28;20038;-83
2023/11/18 08:32:12;;;;;;;41.28;18.88;;;;;;;4.25;100.00;101932.91;5001780;28;20376;-79
2023/11/18 08:34:37;;;;;;;45.30;19.23;;;;;;;4.35;100.00;101930.63;4998288;28;20115;-80
2023/11/18 08:37:06;;;;;;;47.10;17.73;;;;;;;4.43;100.00;101913.88;4995482;28;20045;-80
2023/11/18 08:39:32;;;;;;;41.58;18.33;;;;;;;4.40;100.00;101916.63;4995837;28;20045;-81
2023/11/18 08:41:58;;;;;;;44.75;17.80;;;;;;;4.41;100.00;101915.72;5016947;28;20025;-80
2023/11/18 08:44:23;;;;;;;37.28;16.92;;;;;;;4.52;100.00;101914.25;5013825;28;20034;-80
2023/11/18 08:46:51;;;;;;;46.55;17.92;;;;;;;4.43;100.00;101913.88;5011932;28;20087;-80
2023/11/18 08:49:21;;;;;;;41.72;18.05;;;;;;;4.49;100.00;101916.09;4986742;28;20037;-81
2023/11/18 08:51:49;;;;;;;43.92;16.08;;;;;;;4.49;100.00;101916.09;5000352;28;20026;-80
2023/11/18 08:54:25;;;;;;;39.63;17.55;;;;;;;4.46;100.00;101923.13;4996398;28;20077;-79
2023/11/18 08:56:54;;;;;;;38.08;17.75;;;;;;;4.57;100.00;101919.97;4998819;28;20116;-83
2023/11/18 08:59:27;;;;;;;39.60;18.15;;;;;;;4.62;100.00;101907.69;4997528;28;20579;-82
2023/11/18 09:01:55;;;;;;;;;;;;;;;4.59;100.00;101900.97;4993488;28;20041;-80
2023/11/18 09:04:25;;;;;;;42.70;18.00;;;;;;;4.59;100.00;101897.56;4991747;28;19917;-80
2023/11/18 09:07:00;;;;;;;44.53;17.65;;;;;;;4.55;100.00;101890.97;5006856;28;20107;-81
2023/11/18 09:09:28;;;;;;;33.72;16.23;;;;;;;4.62;100.00;101895.66;5004346;28;20421;-81
2023/11/18 09:11:56;;;;;;;41.75;16.50;;;;;;;4.62;100.00;101879.41;5013658;28;20080;-83
2023/11/18 09:14:24;;;;;;;40.35;17.02;;;;;;;4.63;100.00;101876.75;4989081;28;20033;-81
2023/11/18 09:16:50;;;;;;;38.63;16.45;;;;;;;4.71;100.00;101868.59;5010827;28;20538;-80
2023/11/18 09:19:16;;;;;;;41.63;17.55;;;;;;;4.62;100.00;101864.81;5008923;28;20068;-83
2023/11/18 09:21:42;;;;;;;35.08;15.90;;;;;;;4.65;100.00;101864.66;4986063;28;20029;-82
2023/11/18 09:24:12;;;;;;;35.28;17.63;;;;;;;4.77;100.00;101875.13;5007032;28;20037;-83
2023/11/18 09:26:37;;;;;;;32.05;16.33;;;;;;;4.81;100.00;101858.59;4976474;28;20045;-82
2023/11/18 09:29:03;;;;;;;34.08;15.70;;;;;;;4.83;100.00;101860.13;4998595;28;20421;-81
2023/11/18 09:31:31;;;;;;;36.28;16.25;;;;;;;4.82;100.00;101867.94;4974539;28;20087;-81
2023/11/18 09:33:57;;;;;;;35.67;15.82;;;;;;;4.83;100.00;101870.41;4986360;28;20121;-81
2023/11/18 09:36:23;;;;;;;35.55;15.43;;;;;;;4.90;100.00;101862.31;4984922;28;20040;-84
2023/11/18 09:38:49;;;;;;;34.63;17.85;;;;;;;4.90;100.00;101862.31;4967330;28;20496;-82
2023/11/18 09:41:15;;;;;;;38.97;15.52;;;;;;;4.94;100.00;101848.38;4966837;28;20066;-83
2023/11/18 09:43:45;;;;;;;35.80;16.45;;;;;;;4.92;100.00;101863.09;4979358;28;20051;-82
2023/11/18 09:46:23;;;;;;;29.35;14.70;;;;;;;4.99;100.00;101856.63;4977894;28;20157;-79
2023/11/18 09:49:01;;;;;;;31.33;14.98;;;;;;;4.97;100.00;101853.31;4978292;28;20045;-84
2023/11/18 09:51:32;;;;;;;33.90;14.48;;;;;;;5.06;100.00;101850.19;4983806;28;20046;-84
2023/11/18 09:54:10;;;;;;;38.80;14.32;;;;;;;5.17;100.00;101844.41;4997538;28;20437;-81
2023/11/18 09:56:56;;;;;;;29.15;13.65;;;;;;;5.18;100.00;101846.88;4993245;28;20049;-81
2023/11/18 09:59:43;;;;;;;28.58;13.82;;;;;;;5.19;100.00;101847.69;4984564;28;20117;-82
2023/11/18 10:02:10;;;;;;;30.20;14.60;;;;;;;5.23;100.00;101856.88;5002540;28;20033;-82
2023/11/18 10:04:39;;;;;;;35.92;14.88;;;;;;;5.33;100.00;101845.09;5011961;28;20093;-80
2023/11/18 10:07:07;;;;;;;30.48;13.52;;;;;;;5.34;100.00;101839.03;4995238;28;20029;-79
2023/11/18 10:09:38;;;;;;;36.47;14.43;;;;;;;5.29;100.00;101828.19;4994653;28;20117;-82
2023/11/18 10:12:06;;;;;;;31.67;13.88;;;;;;;5.26;100.00;101826.66;4994339;28;20022;-82
2023/11/18 10:14:41;;;;;;;27.52;13.20;;;;;;;5.22;100.00;101806.38;5000629;28;20485;-82
2023/11/18 10:17:07;;;;;;;35.90;14.10;;;;;;;5.34;100.00;101802.19;4989800;28;20491;-79
2023/11/18 10:19:56;;;;;;;29.77;12.80;;;;;;;5.36;100.00;101793.44;4978668;28;20114;-82
2023/11/18 10:22:29;;;;;;;33.75;14.15;;;;;;;5.31;100.00;101785.19;5008994;28;20396;-81
2023/11/18 10:24:55;;;;;;;;;;;;;;;5.25;100.00;101789.00;5002855;28;20141;-81
2023/11/18 10:27:23;;;;;;;28.52;13.50;;;;;;;5.30;100.00;101782.75;5005023;28;20423;-79
2023/11/18 10:29:49;;;;;;;34.78;14.38;;;;;;;5.33;100.00;101777.38;5001954;28;20048;-77
2023/11/18 10:32:20;;;;;;;27.85;13.10;;;;;;;5.33;100.00;101783.38;5006874;28;20038;-79
2023/11/18 10:34:48;;;;;;;26.15;12.98;;;;;;;5.30;100.00;101782.75;5008590;28;20040;-79
2023/11/18 10:37:13;;;;;;;26.13;13.52;;;;;;;5.36;100.00;101766.91;5000967;28;20041;-80
2023/11/18 10:39:38;;;;;;;31.17;13.13;;;;;;;5.36;100.00;101759.19;5006517;28;20025;-77
2023/11/18 10:42:05;;;;;;;31.98;13.23;;;;;;;5.37;100.00;101742.81;4996219;28;20057;-79
2023/11/18 10:44:31;;;;;;;30.77;13.60;;;;;;;5.43;100.00;101742.44;4994879;28;20034;-78
2023/11/18 10:46:58;;;;;;;26.50;13.27;;;;;;;5.48;100.00;101745.53;5006545;28;20049;-78
2023/11/18 10:49:26;;;;;;;30.58;14.27;;;;;;;5.56;100.00;101757.91;5003010;28;20037;-78
2023/11/18 10:51:52;;;;;;;29.77;12.95;;;;;;;5.53;100.00;101764.06;4986546;28;20030;-80
2023/11/18 10:54:19;;;;;;;30.67;12.77;;;;;;;5.59;100.00;101766.22;4984752;28;20068;-79
2023/11/18 10:56:58;;;;;;;31.45;13.55;;;;;;;5.64;100.00;101750.50;5003849;28;20124;-80
2023/11/18 10:59:25;;;;;;;25.08;12.70;;;;;;;5.62;100.00;101742.88;4997795;28;20025;-80
2023/11/18 11:01:51;;;;;;;29.88;12.70;;;;;;;5.71;100.00;101738.03;5024576;28;20533;-81
2023/11/18 11:04:22;;;;;;;26.45;12.63;;;;;;;5.63;100.00;101736.81;4997562;28;20033;-78
2023/11/18 11:06:56;;;;;;;30.20;12.10;;;;;;;5.61;100.00;101724.97;5005858;28;20033;-79
2023/11/18 11:09:35;;;;;;;29.05;13.02;;;;;;;5.75;100.00;101724.88;5013833;28;20073;-79
2023/11/18 11:12:14;;;;;;;23.02;11.02;;;;;;;5.88;100.00;101722.31;4988105;28;20041;-77